Time;durP1;ratioP1;P1;durP2;ratioP2;P2;SDS_P1;SDS_P2;PMS_P1;PMS_P2;Temp;Humidity;BMP_temperature;BMP_pressure;BME280_temperature;BME280_humidity;BME280_pressure;Samples;Min_cycle;Max_cycle;Signal;HPM_P1;HPM_P2
2021/04/06 00:02:08;;;;;;;5.30;4.75;;;;;;;-0.53;100.00;95987.22;5028422;28;20065;-50
2021/04/06 00:04:41;;;;;;;4.65;4.07;;;;;;;-0.68;100.00;95978.59;5005647;28;20072;-51
2021/04/06 00:07:13;;;;;;;6.57;4.80;;;;;;;-0.43;100.00;95979.75;5028170;28;20072;-51
2021/04/06 00:09:43;;;;;;;4.30;4.00;;;;;;;-0.68;100.00;95980.34;5004842;28;20084;-50
2021/04/06 00:12:11;;;;;;;;;;;;;;;-0.76;100.00;95973.84;5026405;28;20484;-49
2021/04/06 00:14:38;;;;;;;5.05;4.55;;;;;;;-0.67;100.00;95976.84;5006726;28;19960;-50
2021/04/06 00:17:09;;;;;;;5.50;4.78;;;;;;;-0.54;100.00;95972.63;5029594;28;20073;-53
2021/04/06 00:19:39;;;;;;;5.60;4.93;;;;;;;-0.68;100.00;95973.41;5010150;28;20068;-53
2021/04/06 00:22:07;;;;;;;5.37;4.77;;;;;;;-0.70;100.00;95971.81;5026627;28;20073;-49
2021/04/06 00:24:37;;;;;;;7.65;4.75;;;;;;;-0.59;100.00;95961.69;5004953;28;20073;-49
2021/04/06 00:27:14;;;;;;;10.32;5.18;;;;;;;-0.66;100.00;95960.38;5026874;28;20084;-52
2021/04/06 00:29:43;;;;;;;8.00;4.65;;;;;;;-0.77;100.00;95963.56;5009422;28;20081;-49
2021/04/06 00:32:11;;;;;;;6.50;5.22;;;;;;;-0.68;100.00;95968.25;5024937;28;20077;-48
2021/04/06 00:34:40;;;;;;;4.68;4.30;;;;;;;-0.88;100.00;95960.78;5011401;28;20060;-51
2021/04/06 00:37:10;;;;;;;4.70;4.30;;;;;;;-0.85;100.00;95961.44;5024109;28;20073;-51
2021/04/06 00:39:38;;;;;;;4.95;4.50;;;;;;;-0.88;100.00;95953.84;5026193;28;20060;-49
2021/04/06 00:42:08;;;;;;;5.00;4.50;;;;;;;-0.92;100.00;95960.13;5004119;28;20538;-51
2021/04/06 00:44:39;;;;;;;7.07;4.72;;;;;;;-0.84;100.00;95957.09;5030179;28;20085;-53
2021/04/06 00:47:06;;;;;;;6.07;5.20;;;;;;;-1.00;100.00;95949.34;4998332;28;22025;-53
2021/04/06 00:49:35;;;;;;;5.35;4.90;;;;;;;-0.83;100.00;95958.75;5025402;28;20096;-49
2021/04/06 00:52:04;;;;;;;7.32;5.38;;;;;;;-0.81;100.00;95954.31;5007834;28;20069;-51
2021/04/06 00:54:33;;;;;;;4.70;4.30;;;;;;;-0.81;100.00;95952.56;5023045;28;20072;-48
2021/04/06 00:57:02;;;;;;;5.00;4.35;;;;;;;-0.79;100.00;95948.16;5001236;28;20173;-52
2021/04/06 00:59:31;;;;;;;4.78;4.28;;;;;;;-0.75;100.00;95941.88;5030143;28;20084;-53
2021/04/06 01:02:01;;;;;;;8.00;5.30;;;;;;;-0.74;100.00;95933.16;5004592;28;20064;-54
2021/04/06 01:04:29;;;;;;;7.15;6.03;;;;;;;-0.75;100.00;95935.84;5028604;28;20072;-51
2021/04/06 01:07:08;;;;;;;5.78;5.28;;;;;;;-0.80;100.00;95943.03;5006553;28;20080;-50
2021/04/06 01:09:43;;;;;;;5.15;4.75;;;;;;;-0.80;100.00;95933.50;5021333;28;20061;-49
2021/04/06 01:12:12;;;;;;;6.68;4.93;;;;;;;-0.87;100.00;95936.53;5007469;28;20065;-48
2021/04/06 01:14:41;;;;;;;9.75;5.70;;;;;;;-0.89;100.00;95941.00;5027069;28;20080;-50
2021/04/06 01:17:11;;;;;;;10.25;5.65;;;;;;;-0.79;100.00;95939.53;5000927;28;21553;-53
2021/04/06 01:19:39;;;;;;;;;;;;;;;-0.83;100.00;95935.44;5029911;28;20077;-51
2021/04/06 01:22:08;;;;;;;7.97;4.65;;;;;;;-0.82;100.00;95932.78;5001400;28;20391;-53
2021/04/06 01:24:37;;;;;;;5.40;4.90;;;;;;;-0.76;100.00;95934.16;5025927;28;20068;-50
2021/04/06 01:27:08;;;;;;;5.03;4.53;;;;;;;-1.07;100.00;95935.09;5006481;28;21888;-52
2021/04/06 01:29:36;;;;;;;4.97;4.47;;;;;;;-0.93;100.00;95936.91;5025167;28;20436;-48
2021/04/06 01:32:03;;;;;;;6.78;5.10;;;;;;;-0.92;100.00;95930.81;5003522;28;20070;-50
2021/04/06 01:34:31;;;;;;;5.85;5.25;;;;;;;-1.03;100.00;95923.66;5028158;28;20548;-49
2021/04/06 01:36:59;;;;;;;6.05;5.40;;;;;;;-1.06;100.00;95921.25;5025759;28;20069;-49
2021/04/06 01:39:28;;;;;;;7.13;5.30;;;;;;;-1.15;100.00;95917.41;5013108;28;20072;-51
2021/04/06 01:41:58;;;;;;;9.80;5.35;;;;;;;-1.17;100.00;95919.28;5025976;28;20784;-50
2021/04/06 01:44:26;;;;;;;;;;;;;;;-1.15;100.00;95916.59;5005232;28;20103;-49
2021/04/06 01:46:55;;;;;;;9.02;5.32;;;;;;;-1.10;100.00;95912.84;5032244;28;19948;-48
2021/04/06 01:49:23;;;;;;;8.30;5.70;;;;;;;-1.10;100.00;95910.25;5001506;28;20061;-48
2021/04/06 01:51:54;;;;;;;6.78;5.38;;;;;;;-1.26;100.00;95905.09;5026691;28;20498;-51
2021/04/06 01:54:22;;;;;;;6.95;5.22;;;;;;;-1.19;100.00;95900.41;5007168;28;20061;-51
2021/04/06 01:56:53;;;;;;;7.10;5.03;;;;;;;-1.25;100.00;95904.16;5021188;28;20096;-50
2021/04/06 01:59:25;;;;;;;4.85;4.45;;;;;;;-1.28;100.00;95895.75;5012883;28;20854;-48
2021/04/06 02:01:55;;;;;;;5.68;4.80;;;;;;;-1.31;100.00;95899.38;5028696;28;20080;-49
2021/04/06 02:04:23;;;;;;;5.90;5.40;;;;;;;-1.30;100.00;95901.03;5004973;28;20068;-50
2021/04/06 02:06:52;;;;;;;6.35;5.75;;;;;;;-1.40;100.00;95896.44;5032898;28;20076;-53
2021/04/06 02:09:20;;;;;;;6.90;5.63;;;;;;;-1.41;100.00;95893.03;4999317;28;20061;-49
2021/04/06 02:11:48;;;;;;;5.47;4.97;;;;;;;-1.37;100.00;95898.88;5024302;28;20083;-50
2021/04/06 02:14:17;;;;;;;8.05;5.78;;;;;;;-1.44;100.00;95891.44;5010259;28;20140;-48
2021/04/06 02:16:51;;;;;;;6.63;5.97;;;;;;;-1.41;100.00;95895.63;5023336;28;20064;-51
2021/04/06 02:19:29;;;;;;;7.05;5.68;;;;;;;-1.44;100.00;95896.63;5007718;28;20080;-48
2021/04/06 02:21:58;;;;;;;9.27;5.40;;;;;;;-1.45;100.00;95899.28;5025667;28;20069;-47
2021/04/06 02:24:27;;;;;;;7.07;5.38;;;;;;;-1.45;100.00;95899.28;5009198;28;20563;-49
2021/04/06 02:27:03;;;;;;;7.28;6.07;;;;;;;-1.38;100.00;95902.34;5030305;28;20092;-50
2021/04/06 02:29:30;;;;;;;8.68;5.72;;;;;;;-1.57;100.00;95899.97;5009917;28;23286;-49
2021/04/06 02:31:59;;;;;;;5.75;5.25;;;;;;;-1.57;100.00;95907.72;5024102;28;20088;-48
2021/04/06 02:34:37;;;;;;;6.57;5.57;;;;;;;-1.53;100.00;95904.06;5003114;28;20065;-47
2021/04/06 02:37:06;;;;;;;8.48;5.85;;;;;;;-1.44;100.00;95908.72;5027354;28;20069;-50
2021/04/06 02:39:38;;;;;;;11.20;5.88;;;;;;;-1.46;100.00;95913.97;5010477;28;20069;-53
2021/04/06 02:42:23;;;;;;;6.10;5.50;;;;;;;-1.64;100.00;95904.63;5025111;28;20079;-48
2021/04/06 02:44:51;;;;;;;9.43;5.60;;;;;;;-1.58;100.00;95904.31;5010467;28;20080;-48
2021/04/06 02:47:20;;;;;;;7.13;6.00;;;;;;;-1.77;100.00;95901.88;5023445;28;20077;-48
2021/04/06 02:49:47;;;;;;;11.63;6.13;;;;;;;-1.78;100.00;95894.22;5033385;28;20068;-46
2021/04/06 02:52:15;;;;;;;10.20;5.72;;;;;;;-1.70;100.00;95899.81;5008529;28;20509;-51
2021/04/06 02:54:43;;;;;;;8.13;6.18;;;;;;;-1.61;100.00;95891.56;5027259;28;20069;-47
2021/04/06 02:57:21;;;;;;;9.23;6.03;;;;;;;-1.72;100.00;95897.31;5004688;28;20072;-48
2021/04/06 02:59:48;;;;;;;8.60;6.35;;;;;;;-1.68;100.00;95892.81;5024745;28;20077;-49
2021/04/06 03:02:16;;;;;;;7.55;5.90;;;;;;;-1.59;100.00;95884.53;5003776;28;20084;-50
2021/04/06 03:04:46;;;;;;;7.15;5.40;;;;;;;-1.65;100.00;95891.78;5032433;28;20067;-48
2021/04/06 03:07:22;;;;;;;10.55;6.55;;;;;;;-1.71;100.00;95886.06;5003020;28;20069;-49
2021/04/06 03:09:55;;;;;;;8.93;6.20;;;;;;;-1.68;100.00;95883.31;5027210;28;20056;-51
2021/04/06 03:12:27;;;;;;;9.98;6.32;;;;;;;-1.85;100.00;95891.16;5011417;28;20072;-48
2021/04/06 03:14:55;;;;;;;6.28;5.68;;;;;;;-2.06;100.00;95894.88;5016706;28;20524;-46
2021/04/06 03:17:22;;;;;;;7.95;5.90;;;;;;;-2.19;100.00;95898.09;5009143;28;20081;-49
2021/04/06 03:19:56;;;;;;;6.68;5.95;;;;;;;-2.05;100.00;95902.53;5021664;28;20065;-53
2021/04/06 03:22:25;;;;;;;7.55;5.47;;;;;;;-2.11;100.00;95889.94;4998575;28;20069;-49
2021/04/06 03:24:52;;;;;;;6.95;6.15;;;;;;;-2.11;100.00;95891.69;5025650;28;20076;-49
2021/04/06 03:27:28;;;;;;;11.25;5.53;;;;;;;-2.10;100.00;95878.69;5007070;28;20121;-47
2021/04/06 03:29:56;;;;;;;6.22;5.30;;;;;;;-2.11;100.00;95878.78;5020941;28;20081;-52
2021/04/06 03:32:23;;;;;;;6.35;5.50;;;;;;;-1.98;100.00;95880.63;5011208;28;20460;-53
2021/04/06 03:34:52;;;;;;;9.63;6.35;;;;;;;-1.88;100.00;95880.13;5024003;28;20080;-54
2021/04/06 03:37:21;;;;;;;6.03;5.43;;;;;;;-1.88;100.00;95880.13;5008572;28;20075;-52
2021/04/06 03:39:49;;;;;;;9.52;6.40;;;;;;;-2.00;100.00;95879.88;5032426;28;20065;-55
2021/04/06 03:42:23;;;;;;;7.40;5.75;;;;;;;-2.01;100.00;95882.53;5000553;28;20073;-55
2021/04/06 03:44:51;;;;;;;6.43;5.82;;;;;;;-2.19;100.00;95877.44;5025036;28;20093;-49
2021/04/06 03:47:18;;;;;;;9.95;6.25;;;;;;;-2.14;100.00;95895.28;5007342;28;20084;-54
2021/04/06 03:49:49;;;;;;;7.53;5.97;;;;;;;-2.16;100.00;95895.38;5022658;28;20080;-53
2021/04/06 03:52:16;;;;;;;;;;;;;;;-2.13;100.00;95878.88;5024946;28;20123;-48
2021/04/06 03:54:47;;;;;;;8.05;5.88;;;;;;;-2.25;100.00;95882.94;5015679;28;19960;-54
2021/04/06 03:57:22;;;;;;;5.47;4.85;;;;;;;-2.19;100.00;95882.63;5022752;28;20069;-56
2021/04/06 03:59:50;;;;;;;7.10;6.40;;;;;;;-2.13;100.00;95878.88;5014390;28;20081;-52
2021/04/06 04:02:17;;;;;;;7.60;6.30;;;;;;;-2.21;100.00;95887.00;5023319;28;20092;-52
2021/04/06 04:04:45;;;;;;;8.32;6.00;;;;;;;-2.22;100.00;95876.78;5000372;28;20125;-54
2021/04/06 04:07:14;;;;;;;9.77;6.22;;;;;;;-2.27;100.00;95879.63;5024809;28;20460;-53
2021/04/06 04:09:42;;;;;;;10.52;6.82;;;;;;;-2.25;100.00;95882.09;4992205;28;20080;-56
2021/04/06 04:12:10;;;;;;;7.45;6.75;;;;;;;-2.26;100.00;95870.94;5022551;28;20057;-48
2021/04/06 04:14:37;;;;;;;11.57;6.15;;;;;;;-2.27;100.00;95881.34;5006762;28;20527;-54
2021/04/06 04:17:06;;;;;;;7.75;7.05;;;;;;;-2.30;100.00;95873.78;5023473;28;20069;-55
2021/04/06 04:19:34;;;;;;;10.45;6.38;;;;;;;-2.28;100.00;95875.34;5007168;28;20509;-51
2021/04/06 04:22:02;;;;;;;7.80;6.55;;;;;;;-2.28;100.00;95877.09;5023699;28;20076;-52
2021/04/06 04:24:30;;;;;;;7.18;6.47;;;;;;;-2.26;100.00;95876.09;5002984;28;20471;-51
2021/04/06 04:26:57;;;;;;;7.68;6.88;;;;;;;-2.20;100.00;95872.38;5027757;28;20072;-51
2021/04/06 04:29:25;;;;;;;8.88;7.10;;;;;;;-2.24;100.00;95873.44;5011547;28;20089;-52
2021/04/06 04:31:53;;;;;;;11.90;7.38;;;;;;;-2.27;100.00;95877.03;5027820;28;20065;-48
2021/04/06 04:34:20;;;;;;;11.85;6.70;;;;;;;-2.28;100.00;95875.34;5008539;28;20077;-50
2021/04/06 04:36:47;;;;;;;8.75;5.82;;;;;;;-2.33;100.00;95868.78;5024551;28;20065;-51
2021/04/06 04:39:15;;;;;;;6.95;6.00;;;;;;;-2.22;100.00;95875.03;5006807;28;20069;-49
2021/04/06 04:41:42;;;;;;;8.45;6.47;;;;;;;-2.22;100.00;95874.19;5024534;28;20314;-49
2021/04/06 04:44:10;;;;;;;13.23;6.22;;;;;;;-2.31;100.00;95872.91;5031223;28;20088;-50
2021/04/06 04:46:38;;;;;;;9.93;7.47;;;;;;;-2.19;100.00;95868.88;5007692;28;20061;-48
2021/04/06 04:49:05;;;;;;;8.32;5.60;;;;;;;-2.22;100.00;95869.03;5023650;28;20069;-48
2021/04/06 04:51:33;;;;;;;9.43;6.85;;;;;;;-2.18;100.00;95873.09;5010927;28;20087;-55
2021/04/06 04:54:00;;;;;;;8.10;6.53;;;;;;;-2.14;100.00;95879.78;5021495;28;20078;-51
2021/04/06 04:56:28;;;;;;;10.32;6.70;;;;;;;-2.05;100.00;95881.03;5006224;28;20700;-52
2021/04/06 04:58:55;;;;;;;7.88;6.80;;;;;;;-2.13;100.00;95880.59;5028834;28;20069;-49
2021/04/06 05:01:22;;;;;;;7.10;6.20;;;;;;;-2.23;100.00;95875.13;5004397;28;20065;-49
2021/04/06 05:03:50;;;;;;;7.47;6.28;;;;;;;-2.10;100.00;95880.44;5025542;28;20084;-52
2021/04/06 05:06:19;;;;;;;8.73;6.60;;;;;;;-1.99;100.00;95880.72;5006360;28;20468;-53
2021/04/06 05:08:46;;;;;;;8.25;6.25;;;;;;;-1.48;100.00;95878.75;5019414;28;20073;-52
2021/04/06 05:11:13;;;;;;;7.57;6.10;;;;;;;-1.72;100.00;95875.78;5004348;28;20077;-51
2021/04/06 05:13:41;;;;;;;7.20;5.60;;;;;;;-1.50;100.00;95878.84;5024113;28;20511;-54
2021/04/06 05:16:08;;;;;;;6.55;5.82;;;;;;;-1.76;100.00;95884.63;5007172;28;20076;-49
2021/04/06 05:18:36;;;;;;;8.63;5.38;;;;;;;-1.81;100.00;95884.06;5028228;28;20064;-49
2021/04/06 05:21:05;;;;;;;8.73;6.50;;;;;;;-1.96;100.00;95885.72;5002250;28;20056;-52
2021/04/06 05:23:32;;;;;;;8.40;5.88;;;;;;;-1.86;100.00;95883.47;5032567;28;20099;-47
2021/04/06 05:26:00;;;;;;;8.38;6.15;;;;;;;-1.74;100.00;95891.38;5011666;28;20068;-49
2021/04/06 05:28:27;;;;;;;10.25;5.43;;;;;;;-1.75;100.00;95891.47;5027853;28;20076;-49
2021/04/06 05:30:54;;;;;;;7.00;6.30;;;;;;;-1.71;100.00;95886.06;5028322;28;20545;-51
2021/04/06 05:33:22;;;;;;;6.07;5.47;;;;;;;-1.75;100.00;95886.31;5005140;28;20057;-49
2021/04/06 05:35:51;;;;;;;6.82;5.47;;;;;;;-1.73;100.00;95884.47;5026131;28;20078;-48
2021/04/06 05:38:19;;;;;;;9.00;5.85;;;;;;;-1.63;100.00;95885.63;5001559;28;20085;-50
2021/04/06 05:40:46;;;;;;;7.95;6.07;;;;;;;-1.43;100.00;95884.53;5022995;28;20061;-48
2021/04/06 05:43:15;;;;;;;6.30;5.70;;;;;;;-1.59;100.00;95884.53;5005225;28;20065;-51
2021/04/06 05:45:44;;;;;;;8.18;5.90;;;;;;;-1.45;100.00;95881.19;5027348;28;20091;-49
2021/04/06 05:48:15;;;;;;;7.22;5.22;;;;;;;-1.35;100.00;95890.09;5002987;28;20069;-46
2021/04/06 05:50:44;;;;;;;5.65;5.15;;;;;;;-1.36;100.00;95883.25;5031388;28;20077;-49
2021/04/06 05:53:12;;;;;;;8.55;5.95;;;;;;;-1.25;100.00;95887.81;5014640;28;20084;-47
2021/04/06 05:55:41;;;;;;;5.82;5.22;;;;;;;-1.24;100.00;95887.75;5023924;28;20088;-48
2021/04/06 05:58:26;;;;;;;6.72;5.47;;;;;;;-1.13;100.00;95881.97;5004139;28;20054;-52
2021/04/06 06:00:54;;;;;;;5.57;5.07;;;;;;;-1.01;100.00;95870.06;5025452;28;20439;-47
2021/04/06 06:03:21;;;;;;;5.43;4.93;;;;;;;-1.08;100.00;95864.41;5006468;28;20058;-48
2021/04/06 06:05:49;;;;;;;4.40;4.07;;;;;;;-1.00;100.00;95866.53;5035215;28;20479;-48
2021/04/06 06:08:18;;;;;;;5.43;4.93;;;;;;;-1.04;100.00;95857.31;5006164;28;20073;-51
2021/04/06 06:10:46;;;;;;;5.90;5.25;;;;;;;-0.89;100.00;95858.19;5030568;28;20531;-49
2021/04/06 06:13:16;;;;;;;7.22;5.28;;;;;;;-0.90;100.00;95865.09;5016700;28;20057;-48
2021/04/06 06:16:22;;;;;;;6.03;5.50;;;;;;;-0.91;100.00;95855.66;5025735;28;20064;-49
2021/04/06 06:18:57;;;;;;;6.82;5.15;;;;;;;-0.70;100.00;95840.63;4998662;28;20079;-46
2021/04/06 06:21:40;;;;;;;5.53;5.03;;;;;;;-0.78;100.00;95866.16;5037407;28;20542;-51
2021/04/06 06:24:10;;;;;;;5.10;4.70;;;;;;;-0.71;100.00;95857.09;5002678;28;20057;-54
2021/04/06 06:26:38;;;;;;;6.57;5.35;;;;;;;-0.38;100.00;95859.44;5026945;28;20077;-48
2021/04/06 06:29:11;;;;;;;7.15;6.45;;;;;;;-0.19;100.00;95850.53;5010486;28;20073;-50
2021/04/06 06:31:42;;;;;;;5.05;4.60;;;;;;;-0.24;100.00;95843.03;5024241;28;20060;-50
2021/04/06 06:34:31;;;;;;;;;;;;;;;0.13;100.00;95851.94;5007676;28;20495;-50
2021/04/06 06:37:18;;;;;;;5.13;4.72;;;;;;;0.26;100.00;95856.38;5038559;28;20060;-49
2021/04/06 06:39:57;;;;;;;5.43;4.93;;;;;;;0.58;100.00;95842.16;5012596;28;20598;-54
2021/04/06 06:42:27;;;;;;;5.38;4.40;;;;;;;0.20;100.00;95860.16;5024510;28;20034;-49
2021/04/06 06:44:56;;;;;;;5.90;4.35;;;;;;;-0.03;100.00;95857.25;5012506;28;20711;-53
2021/04/06 06:47:25;;;;;;;6.20;4.55;;;;;;;-0.14;100.00;95853.66;5037288;28;20658;-49
2021/04/06 06:49:54;;;;;;;4.80;4.35;;;;;;;-0.05;100.00;95837.53;5006088;28;20073;-51
2021/04/06 06:52:30;;;;;;;5.77;4.77;;;;;;;0.12;100.00;95855.47;5026044;28;20061;-53
2021/04/06 06:55:02;;;;;;;4.55;4.22;;;;;;;0.19;100.00;95855.91;5005521;28;20088;-52
2021/04/06 06:57:32;;;;;;;4.65;3.97;;;;;;;0.23;100.00;95853.03;5025762;28;20073;-50
2021/04/06 07:00:11;;;;;;;7.70;4.55;;;;;;;0.45;100.00;95851.69;5008964;28;20077;-51
2021/04/06 07:02:40;;;;;;;4.85;4.45;;;;;;;0.55;100.00;95855.38;5031797;28;20080;-53
2021/04/06 07:05:12;;;;;;;5.13;4.50;;;;;;;0.51;100.00;95856.47;5008690;28;21544;-55
2021/04/06 07:08:02;;;;;;;5.23;4.77;;;;;;;0.51;100.00;95855.63;5028835;28;20079;-47
2021/04/06 07:10:33;;;;;;;5.63;4.07;;;;;;;0.26;100.00;95851.19;4998902;28;20479;-52
2021/04/06 07:13:09;;;;;;;4.70;4.30;;;;;;;0.39;100.00;95847.72;5027813;28;20072;-52
2021/04/06 07:15:42;;;;;;;4.65;4.25;;;;;;;0.40;100.00;95844.19;4996979;28;20069;-51
2021/04/06 07:18:13;;;;;;;5.05;4.53;;;;;;;0.40;100.00;95843.34;5030237;28;20065;-56
2021/04/06 07:20:43;;;;;;;6.53;4.40;;;;;;;0.48;100.00;95848.88;4996161;28;20084;-56
2021/04/06 07:23:15;;;;;;;;;;;;;;;0.62;100.00;95853.19;5028714;28;20394;-50
2021/04/06 07:25:43;;;;;;;4.53;4.13;;;;;;;0.78;100.00;95845.25;5004044;28;19960;-53
2021/04/06 07:28:15;;;;;;;4.15;3.65;;;;;;;0.68;100.00;95842.41;5030203;28;20067;-55
2021/04/06 07:30:44;;;;;;;6.50;4.22;;;;;;;0.58;100.00;95854.31;5030805;28;20064;-54
2021/04/06 07:33:30;;;;;;;4.93;4.45;;;;;;;0.89;100.00;95842.78;5024718;28;20068;-53
2021/04/06 07:36:00;;;;;;;4.55;4.15;;;;;;;0.64;100.00;95841.78;5019149;28;20076;-50
2021/04/06 07:38:28;;;;;;;6.72;4.68;;;;;;;0.88;100.00;95843.72;5037733;28;20083;-49
2021/04/06 07:40:55;;;;;;;5.47;4.70;;;;;;;0.50;100.00;95812.47;5020748;28;20662;-50
2021/04/06 07:43:24;;;;;;;8.88;4.50;;;;;;;0.36;100.00;95847.91;5003434;28;20139;-54
2021/04/06 07:45:52;;;;;;;5.22;4.38;;;;;;;0.42;100.00;95846.69;5029100;28;20076;-56
2021/04/06 07:48:45;;;;;;;4.60;4.07;;;;;;;0.13;100.00;95844.16;5001833;28;20076;-53
2021/04/06 07:51:15;;;;;;;5.45;4.13;;;;;;;0.03;100.00;95856.03;5027463;28;20069;-47
2021/04/06 07:54:01;;;;;;;4.82;4.00;;;;;;;0.26;100.00;95856.38;5020232;28;20084;-50
2021/04/06 07:56:49;;;;;;;6.90;4.65;;;;;;;0.27;100.00;95848.47;5030205;28;20077;-55
2021/04/06 07:59:56;;;;;;;5.80;4.03;;;;;;;0.16;100.00;95837.97;5021326;28;20065;-47
2021/04/06 08:02:27;;;;;;;8.57;4.78;;;;;;;0.27;100.00;95851.06;5017613;28;20060;-51
2021/04/06 08:04:56;;;;;;;5.32;4.32;;;;;;;0.44;100.00;95840.47;5033724;28;20069;-53
2021/04/06 08:07:31;;;;;;;5.03;3.92;;;;;;;0.63;100.00;95842.72;5015042;28;20542;-55
2021/04/06 08:10:00;;;;;;;4.55;4.15;;;;;;;0.80;100.00;95848.59;5037455;28;20179;-56
2021/04/06 08:12:29;;;;;;;6.63;4.45;;;;;;;0.82;100.00;95846.69;5005989;28;20128;-48
2021/04/06 08:14:59;;;;;;;5.47;3.55;;;;;;;0.88;100.00;95843.72;5025383;28;20085;-55
2021/04/06 08:17:42;;;;;;;4.45;3.95;;;;;;;0.61;100.00;95831.59;5047176;28;20084;-55
2021/04/06 08:20:38;;;;;;;4.72;4.28;;;;;;;0.89;100.00;95856.56;5028235;28;20441;-53
2021/04/06 08:23:51;;;;;;;5.95;4.13;;;;;;;0.83;100.00;95867.38;4986195;28;20061;-56
2021/04/06 08:26:29;;;;;;;5.03;3.97;;;;;;;1.03;100.00;95858.25;4988749;28;20091;-53
2021/04/06 08:28:57;;;;;;;10.90;4.00;;;;;;;1.19;100.00;95869.31;5016803;28;20468;-54
2021/04/06 08:31:32;;;;;;;9.27;3.88;;;;;;;1.18;100.00;95836.50;5025346;28;20068;-52
2021/04/06 08:34:39;;;;;;;5.53;4.40;;;;;;;1.36;100.00;95859.56;5015133;28;20069;-50
2021/04/06 08:37:19;;;;;;;7.20;4.38;;;;;;;1.58;100.00;95862.38;5034923;28;20075;-55
2021/04/06 08:39:46;;;;;;;6.07;4.10;;;;;;;1.77;100.00;95853.31;5011411;28;20064;-48
2021/04/06 08:42:16;;;;;;;7.88;4.63;;;;;;;1.54;100.00;95847.91;5025801;28;20522;-45
2021/04/06 08:44:46;;;;;;;5.07;4.38;;;;;;;1.52;100.00;95852.41;5015473;28;20816;-47
2021/04/06 08:47:43;;;;;;;7.50;4.47;;;;;;;1.81;100.00;95850.41;5037975;28;20092;-56
2021/04/06 08:50:12;;;;;;;6.15;4.25;;;;;;;1.42;100.00;95844.41;4996571;28;20497;-52
2021/04/06 08:52:41;;;;;;;5.07;4.03;;;;;;;1.53;100.00;95845.44;5019379;28;20080;-47
2021/04/06 08:55:13;;;;;;;7.05;4.35;;;;;;;1.47;100.00;95843.25;5010993;28;20499;-48
2021/04/06 08:57:41;;;;;;;6.90;3.78;;;;;;;1.62;100.00;95845.66;5029908;28;20067;-53
2021/04/06 09:00:14;;;;;;;4.82;4.03;;;;;;;1.79;100.00;95846.22;5013417;28;20070;-51
2021/04/06 09:02:41;;;;;;;5.63;3.78;;;;;;;1.74;100.00;95841.34;5034048;28;20465;-51
2021/04/06 09:05:11;;;;;;;4.35;3.50;;;;;;;1.52;100.00;95843.78;5006416;28;21549;-55
2021/04/06 09:07:40;;;;;;;6.00;4.18;;;;;;;1.81;100.00;95845.19;5024213;28;20179;-47
2021/04/06 09:10:10;;;;;;;7.38;4.18;;;;;;;1.94;100.00;95852.16;5011137;28;20084;-48
2021/04/06 09:12:40;;;;;;;7.35;4.20;;;;;;;1.73;100.00;95841.47;5026984;28;20072;-47
2021/04/06 09:15:10;;;;;;;4.55;3.53;;;;;;;2.00;100.00;95843.94;5005619;28;20068;-47
2021/04/06 09:17:38;;;;;;;4.45;4.05;;;;;;;2.25;100.00;95843.03;5042910;28;20072;-46
2021/04/06 09:20:10;;;;;;;3.60;3.30;;;;;;;2.08;100.00;95857.22;5001110;28;20637;-50
2021/04/06 09:22:38;;;;;;;4.68;4.22;;;;;;;2.17;100.00;95848.78;5037659;28;20073;-51
2021/04/06 09:25:18;;;;;;;5.18;3.63;;;;;;;2.21;100.00;95832.00;5033710;28;20183;-52
2021/04/06 09:27:51;;;;;;;6.97;4.07;;;;;;;2.64;100.00;95839.31;5024552;28;20065;-47
2021/04/06 09:30:31;;;;;;;7.18;3.70;;;;;;;2.49;100.00;95827.44;5031743;28;20061;-47
2021/04/06 09:33:04;;;;;;;4.45;3.58;;;;;;;2.65;100.00;95827.13;5040898;28;20073;-49
2021/04/06 09:35:31;;;;;;;5.07;3.70;;;;;;;2.75;100.00;95826.38;5028541;28;20081;-54
2021/04/06 09:37:59;;;;;;;4.78;3.88;;;;;;;2.75;100.00;95828.97;5018666;28;20080;-48
2021/04/06 09:40:32;;;;;;;5.72;3.75;;;;;;;3.09;100.00;95821.25;5034788;28;20069;-55
2021/04/06 09:43:18;;;;;;;3.78;3.45;;;;;;;2.91;100.00;95818.25;5018625;28;20528;-48
2021/04/06 09:45:47;;;;;;;6.53;3.67;;;;;;;3.17;100.00;95823.31;5037758;28;20073;-51
2021/04/06 09:48:33;;;;;;;5.05;3.35;;;;;;;2.75;100.00;95822.91;5037382;28;20076;-46
2021/04/06 09:51:03;;;;;;;8.05;3.47;;;;;;;2.65;100.00;95808.91;5025762;28;21650;-49
2021/04/06 09:53:30;;;;;;;6.72;3.72;;;;;;;3.05;100.00;95825.88;5008892;28;20099;-46
2021/04/06 09:55:59;;;;;;;3.95;3.55;;;;;;;2.87;100.00;95813.38;5032807;28;20069;-47
2021/04/06 09:58:28;;;;;;;4.93;3.78;;;;;;;2.40;100.00;95815.06;5004178;28;20053;-49
2021/04/06 10:00:55;;;;;;;7.05;3.90;;;;;;;2.88;100.00;95813.25;5031037;28;20420;-48
2021/04/06 10:03:24;;;;;;;4.82;3.55;;;;;;;2.66;100.00;95823.59;5006450;28;20068;-52
2021/04/06 10:06:02;;;;;;;4.75;3.72;;;;;;;2.90;100.00;95815.78;5030992;28;20085;-54
2021/04/06 10:08:31;;;;;;;9.80;3.53;;;;;;;3.02;100.00;95812.25;5008024;28;20504;-49
2021/04/06 10:10:59;;;;;;;5.63;3.20;;;;;;;2.96;100.00;95813.53;5029094;28;20495;-52
2021/04/06 10:13:27;;;;;;;3.78;3.35;;;;;;;3.30;100.00;95811.84;5007298;28;20080;-46
2021/04/06 10:16:05;;;;;;;4.80;3.20;;;;;;;2.82;100.00;95811.09;5031298;28;20456;-49
2021/04/06 10:18:38;;;;;;;4.63;3.13;;;;;;;2.84;100.00;95799.66;5009149;28;20069;-49
2021/04/06 10:21:19;;;;;;;3.88;3.28;;;;;;;2.72;100.00;95812.72;5029141;28;20057;-46
2021/04/06 10:23:47;;;;;;;4.18;3.60;;;;;;;2.77;100.00;95808.84;5002496;28;20092;-54
2021/04/06 10:26:23;;;;;;;5.63;3.70;;;;;;;2.20;100.00;95822.53;5026030;28;20132;-52
2021/04/06 10:29:10;;;;;;;4.32;3.50;;;;;;;2.48;100.00;95813.59;5003102;28;20493;-52
2021/04/06 10:31:48;;;;;;;4.88;3.33;;;;;;;2.82;100.00;95816.31;5036040;28;20068;-47
2021/04/06 10:34:16;;;;;;;3.97;3.63;;;;;;;3.09;100.00;95801.25;5013613;28;20064;-50
2021/04/06 10:37:01;;;;;;;9.90;3.92;;;;;;;2.25;100.00;95822.22;5022271;28;20061;-53
2021/04/06 10:39:32;;;;;;;4.90;3.45;;;;;;;1.77;100.00;95814.34;5006343;28;20065;-48
2021/04/06 10:42:01;;;;;;;3.17;2.80;;;;;;;1.92;100.00;95797.66;5031733;28;20083;-49
2021/04/06 10:44:29;;;;;;;3.95;3.63;;;;;;;2.20;100.00;95814.72;5012948;28;20088;-47
2021/04/06 10:46:57;;;;;;;6.22;3.55;;;;;;;2.10;100.00;95819.78;5033037;28;20069;-46
2021/04/06 10:49:24;;;;;;;5.43;3.85;;;;;;;2.25;100.00;95812.63;5000200;28;20072;-49
2021/04/06 10:51:54;;;;;;;5.65;3.50;;;;;;;2.48;100.00;95791.91;5036409;28;20539;-48
2021/04/06 10:54:22;;;;;;;3.92;3.35;;;;;;;1.97;100.00;95800.78;5007750;28;20551;-50
2021/04/06 10:56:51;;;;;;;3.90;3.58;;;;;;;2.71;100.00;95806.69;5030642;28;20081;-52
2021/04/06 10:59:29;;;;;;;5.00;3.37;;;;;;;2.82;100.00;95798.94;5009872;28;20085;-52
2021/04/06 11:01:57;;;;;;;9.95;3.67;;;;;;;2.94;100.00;95784.16;5030285;28;20479;-51
2021/04/06 11:04:26;;;;;;;4.07;3.65;;;;;;;3.22;100.00;95795.13;5000806;28;20061;-52
2021/04/06 11:06:57;;;;;;;4.13;3.17;;;;;;;2.66;100.00;95798.41;5023931;28;20061;-51
2021/04/06 11:09:36;;;;;;;5.28;3.55;;;;;;;1.82;100.00;95804.44;4996051;28;20069;-49
2021/04/06 11:12:05;;;;;;;4.65;3.60;;;;;;;1.78;100.00;95803.81;5018982;28;20073;-50
2021/04/06 11:14:34;;;;;;;4.40;3.50;;;;;;;1.37;100.00;95802.31;5007163;28;20547;-50
2021/04/06 11:17:05;;;;;;;4.17;3.50;;;;;;;1.81;100.00;95790.59;5022566;28;20065;-47
2021/04/06 11:19:34;;;;;;;6.85;3.78;;;;;;;2.24;100.00;95769.38;5017858;28;20111;-47
2021/04/06 11:22:03;;;;;;;3.97;3.63;;;;;;;2.21;100.00;95793.00;5006009;28;20065;-52
2021/04/06 11:24:32;;;;;;;6.05;4.10;;;;;;;2.17;100.00;95793.31;5025099;28;20484;-50
2021/04/06 11:27:01;;;;;;;6.28;3.65;;;;;;;2.42;100.00;95785.41;5003863;28;20084;-53
2021/04/06 11:29:30;;;;;;;9.75;4.32;;;;;;;2.69;100.00;95774.75;5030840;28;20077;-55
2021/04/06 11:32:00;;;;;;;8.43;3.90;;;;;;;2.67;100.00;95781.00;4997513;28;20562;-49
2021/04/06 11:34:30;;;;;;;6.55;4.10;;;;;;;2.32;100.00;95771.41;5018707;28;20064;-49
2021/04/06 11:36:58;;;;;;;10.52;5.10;;;;;;;2.92;100.00;95770.41;5014134;28;20061;-48
2021/04/06 11:39:27;;;;;;;10.48;4.28;;;;;;;3.28;100.00;95769.44;5025118;28;20115;-50
2021/04/06 11:41:55;;;;;;;7.78;3.95;;;;;;;3.51;100.00;95752.03;5007732;28;20092;-56
2021/04/06 11:44:23;;;;;;;6.90;4.18;;;;;;;3.76;100.00;95758.78;5030288;28;20448;-55
2021/04/06 11:46:52;;;;;;;3.88;3.50;;;;;;;2.87;100.00;95761.31;5002979;28;20088;-55
2021/04/06 11:49:21;;;;;;;4.85;3.70;;;;;;;2.58;100.00;95759.94;5036530;28;20546;-54